createdAt,value
2019-03-16T00:02:01.724Z,41.90
2019-03-16T00:04:32.219Z,42.02
2019-03-16T00:07:02.706Z,42.27
2019-03-16T00:09:33.190Z,42.60
2019-03-16T00:12:03.825Z,42.30
2019-03-16T00:14:34.302Z,42.32
2019-03-16T00:17:04.786Z,42.09
2019-03-16T00:19:35.227Z,42.08
2019-03-16T00:22:06.550Z,42.07
2019-03-16T00:24:37.346Z,41.95
2019-03-16T00:27:08.117Z,42.13
2019-03-16T00:29:38.865Z,42.13
2019-03-16T00:32:13.737Z,42.08
2019-03-16T00:34:42.130Z,42.42
2019-03-16T00:37:12.830Z,42.61
2019-03-16T00:39:43.536Z,43.10
2019-03-16T00:42:14.208Z,42.84
2019-03-16T00:44:44.969Z,42.57
2019-03-16T00:47:15.630Z,42.42
2019-03-16T00:49:46.207Z,43.00
2019-03-16T00:52:16.668Z,43.13
2019-03-16T00:54:47.374Z,43.40
2019-03-16T00:57:18.176Z,42.89
2019-03-16T00:59:48.986Z,42.75
2019-03-16T01:02:26.992Z,42.61
2019-03-16T01:04:52.023Z,42.61
2019-03-16T01:07:22.785Z,42.45
2019-03-16T01:09:53.576Z,42.34
2019-03-16T01:12:24.263Z,42.15
2019-03-16T01:14:54.929Z,42.16
2019-03-16T01:17:25.570Z,42.42
2019-03-16T01:19:56.504Z,42.10
2019-03-16T01:22:27.202Z,42.13
2019-03-16T01:24:57.904Z,41.97
2019-03-16T01:27:28.566Z,41.74
2019-03-16T01:29:59.454Z,41.71
2019-03-16T01:32:39.935Z,41.50
2019-03-16T01:35:02.494Z,41.41
2019-03-16T01:37:33.154Z,41.37
2019-03-16T01:40:03.932Z,42.03
2019-03-16T01:42:34.371Z,41.88
2019-03-16T01:45:05.657Z,41.96
2019-03-16T01:47:36.431Z,41.60
2019-03-16T01:50:07.365Z,42.24
2019-03-16T01:52:37.816Z,41.90
2019-03-16T01:55:08.582Z,41.63
2019-03-16T01:57:39.039Z,41.72
2019-03-16T02:00:10.417Z,41.78
2019-03-16T02:02:53.709Z,41.82
2019-03-16T02:05:13.167Z,42.36
2019-03-16T02:07:43.998Z,42.06
2019-03-16T02:10:14.759Z,42.11
2019-03-16T02:12:45.469Z,42.23
2019-03-16T02:15:16.263Z,41.63
2019-03-16T02:17:47.206Z,41.80
2019-03-16T02:20:17.946Z,41.63
2019-03-16T02:22:48.711Z,41.55
2019-03-16T02:25:19.450Z,41.69
2019-03-16T02:27:50.149Z,41.89
2019-03-16T02:30:20.795Z,42.11
2019-03-16T02:32:51.555Z,42.03
2019-03-16T02:35:22.258Z,42.42
2019-03-16T02:37:52.959Z,42.44
2019-03-16T02:40:23.445Z,42.40
2019-03-16T02:42:54.361Z,43.14
2019-03-16T02:45:25.138Z,42.63
2019-03-16T02:47:55.796Z,42.67
2019-03-16T02:50:26.271Z,42.88
2019-03-16T02:52:56.725Z,42.50
2019-03-16T02:55:27.163Z,42.53
2019-03-16T02:57:57.661Z,42.61
2019-03-16T03:00:28.403Z,42.57
2019-03-16T03:02:59.057Z,42.80
2019-03-16T03:05:29.801Z,42.68
2019-03-16T03:08:00.312Z,42.53
2019-03-16T03:10:30.753Z,42.86
2019-03-16T03:13:01.585Z,42.85
2019-03-16T03:15:32.227Z,42.86
2019-03-16T03:18:03.234Z,42.98
2019-03-16T03:20:33.998Z,43.18
2019-03-16T03:23:04.816Z,43.48
2019-03-16T03:25:35.551Z,43.92
2019-03-16T03:28:06.379Z,44.14
2019-03-16T03:30:37.161Z,44.02
2019-03-16T03:33:07.961Z,44.16
2019-03-16T03:35:38.757Z,44.10
2019-03-16T03:38:09.310Z,43.70
2019-03-16T03:40:40.069Z,43.66
2019-03-16T03:43:10.720Z,43.62
2019-03-16T03:45:41.516Z,43.42
2019-03-16T03:48:12.265Z,43.26
2019-03-16T03:50:43.034Z,43.43
2019-03-16T03:53:13.766Z,43.30
2019-03-16T03:55:44.572Z,43.46
2019-03-16T03:58:15.394Z,44.07
2019-03-16T04:00:45.984Z,43.84
2019-03-16T04:03:16.574Z,43.69
2019-03-16T04:05:47.110Z,43.46
2019-03-16T04:08:17.663Z,43.47
2019-03-16T04:10:48.133Z,43.49
2019-03-16T04:13:18.581Z,43.52
2019-03-16T04:15:49.034Z,43.58
2019-03-16T04:18:19.471Z,43.91
2019-03-16T04:20:49.984Z,44.32
2019-03-16T04:23:20.417Z,44.67
2019-03-16T04:25:50.902Z,44.88
2019-03-16T04:28:21.355Z,45.04
2019-03-16T04:30:51.842Z,45.79
2019-03-16T04:33:22.288Z,45.39
2019-03-16T04:35:52.772Z,44.81
2019-03-16T04:38:23.228Z,44.42
2019-03-16T04:40:53.732Z,44.25
2019-03-16T04:43:24.450Z,43.70
2019-03-16T04:45:55.110Z,43.52
2019-03-16T04:48:25.951Z,43.28
2019-03-16T04:50:56.722Z,42.94
2019-03-16T04:53:27.631Z,42.87
2019-03-16T04:55:58.427Z,42.63
2019-03-16T04:58:29.114Z,42.19
2019-03-16T05:00:59.939Z,42.23
2019-03-16T05:03:30.849Z,42.41
2019-03-16T05:06:01.562Z,42.31
2019-03-16T05:08:32.335Z,42.25
2019-03-16T05:11:02.909Z,42.47
2019-03-16T05:13:33.577Z,42.77
2019-03-16T05:16:04.342Z,42.95
2019-03-16T05:18:35.188Z,43.09
2019-03-16T05:21:06.084Z,43.10
2019-03-16T05:23:36.821Z,43.23
2019-03-16T05:26:07.637Z,43.27
2019-03-16T05:28:38.114Z,43.21
2019-03-16T05:31:08.595Z,43.34
2019-03-16T05:33:39.041Z,43.40
2019-03-16T05:36:09.724Z,43.28
2019-03-16T05:38:40.550Z,43.16
2019-03-16T05:41:11.260Z,43.12
2019-03-16T05:43:41.853Z,43.01
2019-03-16T05:46:12.910Z,42.85
2019-03-16T05:48:43.663Z,42.90
2019-03-16T05:51:14.374Z,42.71
2019-03-16T05:53:45.252Z,42.74
2019-03-16T05:56:16.094Z,42.66
2019-03-16T05:58:46.651Z,42.36
2019-03-16T06:01:18.750Z,42.15
2019-03-16T06:03:49.447Z,41.96
2019-03-16T06:06:20.290Z,41.85
2019-03-16T06:08:50.889Z,41.89
2019-03-16T06:11:24.333Z,41.70
2019-03-16T06:13:55.154Z,41.66
2019-03-16T06:16:25.848Z,41.45
2019-03-16T06:18:58.468Z,40.79
2019-03-16T06:21:29.044Z,40.52
2019-03-16T06:24:01.742Z,40.45
2019-03-16T06:26:32.461Z,40.58
2019-03-16T06:29:02.852Z,40.72
2019-03-16T06:31:33.420Z,40.48
2019-03-16T06:34:04.078Z,40.83
2019-03-16T06:36:34.834Z,40.31
2019-03-16T06:39:07.948Z,40.51
2019-03-16T06:41:38.372Z,40.12
2019-03-16T06:44:09.217Z,40.12
2019-03-16T06:46:39.623Z,39.98
2019-03-16T06:49:10.306Z,39.95
2019-03-16T06:51:41.244Z,39.93
2019-03-16T06:54:12.162Z,39.99
2019-03-16T06:56:42.812Z,40.22
2019-03-16T06:59:13.501Z,40.40
2019-03-16T07:01:44.187Z,40.31
2019-03-16T07:04:14.883Z,40.10
2019-03-16T07:06:46.700Z,39.32
2019-03-16T07:09:19.411Z,39.16
2019-03-16T07:11:49.941Z,38.04
2019-03-16T07:14:20.486Z,37.93
2019-03-16T07:17:01.593Z,37.45
2019-03-16T07:19:23.042Z,36.90
2019-03-16T07:21:53.887Z,36.76
2019-03-16T07:24:26.601Z,36.79
2019-03-16T07:26:57.434Z,36.66
2019-03-16T07:29:28.396Z,36.50
2019-03-16T07:31:58.837Z,36.61
2019-03-16T07:34:31.517Z,35.90
2019-03-16T07:37:01.972Z,36.48
2019-03-16T07:39:32.365Z,35.97
2019-03-16T07:42:02.930Z,35.07
2019-03-16T07:44:33.318Z,35.46
2019-03-16T07:47:03.846Z,34.66
2019-03-16T07:49:34.245Z,35.08
2019-03-16T07:52:05.786Z,34.46
2019-03-16T07:54:36.183Z,34.75
2019-03-16T07:57:06.579Z,34.47
2019-03-16T07:59:37.389Z,33.73
2019-03-16T08:02:07.780Z,33.32
2019-03-16T08:04:38.211Z,33.13
2019-03-16T08:07:08.615Z,32.78
2019-03-16T08:09:39.150Z,33.10
2019-03-16T08:12:09.539Z,32.96
2019-03-16T08:14:41.257Z,32.81
2019-03-16T08:17:11.731Z,32.88
2019-03-16T08:19:43.548Z,32.49
2019-03-16T08:22:14.168Z,32.98
2019-03-16T08:24:46.786Z,32.60
2019-03-16T08:27:17.476Z,32.63
2019-03-16T08:29:48.347Z,32.14
2019-03-16T08:32:19.099Z,32.20
2019-03-16T08:34:50.207Z,31.63
2019-03-16T08:37:20.924Z,31.96
2019-03-16T08:39:51.448Z,31.22
2019-03-16T08:42:21.951Z,31.65
2019-03-16T08:44:53.032Z,32.07
2019-03-16T08:47:23.741Z,31.87
2019-03-16T08:49:54.461Z,31.54
2019-03-16T08:52:24.936Z,30.90
2019-03-16T08:54:55.430Z,30.44
2019-03-16T08:57:25.999Z,30.20
2019-03-16T08:59:56.721Z,30.19
2019-03-16T09:02:27.333Z,29.86
2019-03-16T09:04:58.022Z,28.68
2019-03-16T09:07:28.630Z,28.60
2019-03-16T09:09:59.041Z,28.05
2019-03-16T09:12:29.479Z,28.81
2019-03-16T09:15:01.340Z,28.30
2019-03-16T09:17:31.828Z,27.67
2019-03-16T09:20:02.258Z,27.54
2019-03-16T09:22:32.693Z,27.02
2019-03-16T09:25:03.097Z,26.76
2019-03-16T09:27:33.521Z,26.94
2019-03-16T09:30:07.327Z,26.80
2019-03-16T09:32:38.028Z,26.93
2019-03-16T09:35:08.723Z,26.64
2019-03-16T09:37:39.572Z,26.78
2019-03-16T09:40:10.435Z,26.94
2019-03-16T09:42:41.173Z,26.84
2019-03-16T09:45:12.387Z,27.10
2019-03-16T09:47:43.420Z,26.77
2019-03-16T09:50:14.194Z,26.88
2019-03-16T09:52:44.902Z,26.87
2019-03-16T09:55:25.099Z,26.99
2019-03-16T09:57:55.482Z,27.20
2019-03-16T10:00:26.151Z,26.99
2019-03-16T10:02:57.762Z,26.52
2019-03-16T10:05:28.344Z,26.62
2019-03-16T10:07:59.109Z,26.78
2019-03-16T10:10:31.589Z,26.64
2019-03-16T10:13:02.036Z,26.79
2019-03-16T10:15:32.508Z,26.56
2019-03-16T10:18:03.301Z,26.81
2019-03-16T10:20:33.789Z,26.75
2019-03-16T10:23:04.225Z,26.84
2019-03-16T10:25:34.621Z,26.74
2019-03-16T10:28:06.148Z,26.48
2019-03-16T10:30:36.832Z,26.78
2019-03-16T10:33:07.523Z,26.79
2019-03-16T10:35:37.921Z,26.27
2019-03-16T10:38:08.764Z,26.33
2019-03-16T10:40:39.090Z,26.66
2019-03-16T10:43:09.479Z,27.19
2019-03-16T10:45:39.902Z,27.42
2019-03-16T10:48:11.332Z,27.46
2019-03-16T10:50:41.760Z,27.51
2019-03-16T10:53:12.151Z,27.50
2019-03-16T10:55:42.686Z,27.58
2019-03-16T10:58:13.175Z,27.96
2019-03-16T11:00:43.465Z,27.45
2019-03-16T11:03:13.896Z,27.62
2019-03-16T11:05:44.425Z,27.56
2019-03-16T11:08:16.989Z,27.76
2019-03-16T11:10:48.429Z,27.84
2019-03-16T11:13:22.062Z,27.94
2019-03-16T11:15:53.789Z,27.55
2019-03-16T11:18:25.640Z,27.95
2019-03-16T11:20:56.644Z,27.62
2019-03-16T11:23:27.456Z,27.87
2019-03-16T11:25:57.899Z,27.27
2019-03-16T11:28:29.150Z,27.61
2019-03-16T11:30:59.759Z,27.44
2019-03-16T11:33:30.399Z,27.81
2019-03-16T11:36:01.059Z,27.50
2019-03-16T11:38:31.735Z,28.03
2019-03-16T11:41:02.439Z,27.92
2019-03-16T11:43:33.064Z,27.57
2019-03-16T11:46:03.782Z,27.97
2019-03-16T11:48:34.402Z,27.79
2019-03-16T11:51:05.277Z,27.78
2019-03-16T11:53:35.805Z,27.84
2019-03-16T11:56:17.472Z,27.59
2019-03-16T11:58:38.843Z,27.54
2019-03-16T12:01:09.515Z,27.53
2019-03-16T12:03:39.912Z,27.49
2019-03-16T12:06:10.344Z,27.64
2019-03-16T12:08:40.733Z,27.53
2019-03-16T12:11:11.258Z,27.32
2019-03-16T12:13:43.869Z,27.55
2019-03-16T12:16:14.655Z,27.32
2019-03-16T12:18:46.175Z,27.46
2019-03-16T12:21:16.703Z,27.28
2019-03-16T12:23:47.103Z,27.27
2019-03-16T12:26:20.040Z,27.22
2019-03-16T12:28:49.961Z,27.44
2019-03-16T12:31:20.238Z,27.65
2019-03-16T12:33:56.426Z,27.91
2019-03-16T12:36:25.916Z,27.51
2019-03-16T12:38:56.309Z,27.42
2019-03-16T12:41:26.696Z,27.59
2019-03-16T12:43:57.414Z,27.29
2019-03-16T12:46:28.176Z,27.32
2019-03-16T12:48:58.799Z,27.27
2019-03-16T12:51:29.666Z,27.02
2019-03-16T12:54:01.297Z,26.93
2019-03-16T12:56:31.863Z,27.00
2019-03-16T12:59:10.361Z,27.12
2019-03-16T13:01:36.477Z,26.57
2019-03-16T13:04:07.099Z,26.71
2019-03-16T13:06:37.528Z,26.38
2019-03-16T13:09:09.206Z,26.41
2019-03-16T13:11:39.922Z,26.51
2019-03-16T13:14:10.555Z,26.27
2019-03-16T13:16:41.325Z,26.19
2019-03-16T13:19:12.598Z,26.49
2019-03-16T13:21:43.963Z,26.71
2019-03-16T13:24:14.654Z,26.64
2019-03-16T13:26:45.327Z,26.71
2019-03-16T13:29:15.757Z,26.77
2019-03-16T13:31:46.138Z,27.08
2019-03-16T13:34:16.576Z,26.64
2019-03-16T13:36:46.963Z,26.80
2019-03-16T13:39:17.631Z,26.98
2019-03-16T13:41:48.444Z,27.24
2019-03-16T13:44:19.175Z,27.32
2019-03-16T13:46:49.839Z,27.55
2019-03-16T13:49:20.426Z,27.67
2019-03-16T13:51:51.279Z,27.75
2019-03-16T13:54:21.861Z,28.11
2019-03-16T13:56:52.276Z,27.86
2019-03-16T13:59:22.662Z,28.00
2019-03-16T14:01:53.237Z,28.08
2019-03-16T14:04:23.893Z,28.02
2019-03-16T14:06:54.569Z,27.98
2019-03-16T14:09:25.246Z,27.90
2019-03-16T14:11:55.988Z,28.32
2019-03-16T14:14:26.596Z,28.30
2019-03-16T14:16:57.158Z,28.18
2019-03-16T14:19:27.826Z,28.12
2019-03-16T14:21:58.220Z,28.48
2019-03-16T14:24:28.922Z,28.26
2019-03-16T14:26:59.789Z,28.42
2019-03-16T14:29:30.463Z,28.35
2019-03-16T14:32:01.282Z,28.43
2019-03-16T14:34:31.883Z,28.54
2019-03-16T14:37:02.575Z,28.59
2019-03-16T14:39:39.541Z,28.60
2019-03-16T14:42:10.646Z,28.27
2019-03-16T14:44:41.508Z,28.13
2019-03-16T14:47:15.072Z,28.06
2019-03-16T14:49:46.774Z,27.81
2019-03-16T14:52:19.375Z,27.82
2019-03-16T14:54:49.931Z,27.84
2019-03-16T14:57:20.435Z,28.03
2019-03-16T14:59:50.955Z,27.85
2019-03-16T15:02:21.545Z,28.17
2019-03-16T15:04:52.236Z,28.30
2019-03-16T15:07:22.948Z,28.06
2019-03-16T15:09:53.646Z,28.15
2019-03-16T15:12:24.277Z,28.59
2019-03-16T15:14:55.011Z,28.57
2019-03-16T15:17:25.735Z,28.57
2019-03-16T15:19:56.411Z,28.66
2019-03-16T15:22:27.049Z,28.62
2019-03-16T15:24:57.856Z,28.86
2019-03-16T15:27:28.483Z,29.06
2019-03-16T15:29:59.155Z,29.11
2019-03-16T15:32:29.960Z,29.30
2019-03-16T15:35:00.659Z,29.27
2019-03-16T15:37:31.565Z,29.44
2019-03-16T15:40:02.308Z,29.47
2019-03-16T15:42:33.064Z,29.47
2019-03-16T15:45:03.875Z,29.71
2019-03-16T15:47:34.471Z,29.69
2019-03-16T15:50:05.514Z,29.63
2019-03-16T15:52:37.566Z,29.93
2019-03-16T15:55:08.785Z,29.98
2019-03-16T15:57:42.312Z,29.99
2019-03-16T16:00:12.861Z,30.32
2019-03-16T16:02:43.424Z,30.48
2019-03-16T16:05:13.915Z,30.42
2019-03-16T16:07:44.667Z,30.56
2019-03-16T16:10:15.279Z,30.70
2019-03-16T16:12:46.122Z,30.83
2019-03-16T16:15:17.003Z,30.86
2019-03-16T16:17:48.114Z,31.09
2019-03-16T16:20:18.831Z,31.03
2019-03-16T16:22:49.569Z,31.24
2019-03-16T16:25:20.400Z,31.37
2019-03-16T16:27:51.356Z,31.54
2019-03-16T16:30:22.150Z,31.60
2019-03-16T16:32:53.063Z,31.64
2019-03-16T16:35:23.755Z,31.71
2019-03-16T16:37:54.604Z,32.00
2019-03-16T16:40:25.401Z,31.87
2019-03-16T16:42:56.117Z,31.98
2019-03-16T16:45:26.943Z,32.08
2019-03-16T16:47:57.651Z,32.21
2019-03-16T16:50:28.390Z,32.31
2019-03-16T16:52:59.156Z,32.36
2019-03-16T16:55:29.611Z,32.50
2019-03-16T16:58:00.315Z,32.21
2019-03-16T17:00:31.094Z,32.30
2019-03-16T17:03:01.856Z,32.36
2019-03-16T17:05:32.638Z,32.36
2019-03-16T17:08:03.337Z,32.38
2019-03-16T17:10:34.159Z,32.34
2019-03-16T17:13:05.045Z,32.53
2019-03-16T17:15:35.677Z,32.41
2019-03-16T17:18:06.336Z,32.61
2019-03-16T17:20:36.856Z,32.74
2019-03-16T17:23:07.315Z,32.89
2019-03-16T17:25:37.752Z,32.96
2019-03-16T17:28:08.235Z,33.00
2019-03-16T17:30:38.691Z,33.21
2019-03-16T17:33:09.455Z,33.33
2019-03-16T17:35:40.235Z,33.42
2019-03-16T17:38:11.043Z,33.61
2019-03-16T17:40:41.772Z,33.59
2019-03-16T17:43:12.548Z,33.96
2019-03-16T17:45:43.242Z,33.98
2019-03-16T17:48:14.048Z,34.08
2019-03-16T17:50:44.823Z,34.16
2019-03-16T17:53:15.433Z,34.27
2019-03-16T17:55:46.179Z,34.40
2019-03-16T17:58:16.699Z,34.43
2019-03-16T18:00:47.339Z,34.54
2019-03-16T18:03:18.084Z,34.47
2019-03-16T18:05:48.585Z,34.57
2019-03-16T18:08:19.080Z,34.70
2019-03-16T18:10:49.865Z,34.60
2019-03-16T18:13:20.439Z,34.66
2019-03-16T18:15:50.908Z,34.61
2019-03-16T18:18:21.566Z,34.54
2019-03-16T18:20:52.304Z,34.68
2019-03-16T18:23:22.953Z,34.48
2019-03-16T18:25:53.659Z,34.56
2019-03-16T18:28:24.475Z,34.85
2019-03-16T18:30:55.342Z,34.72
2019-03-16T18:33:25.973Z,34.67
2019-03-16T18:35:56.748Z,34.62
2019-03-16T18:38:27.622Z,34.74
2019-03-16T18:40:58.314Z,34.70
2019-03-16T18:43:29.023Z,34.82
2019-03-16T18:45:59.861Z,34.92
2019-03-16T18:48:30.663Z,34.72
2019-03-16T18:51:01.876Z,34.81
2019-03-16T18:53:32.671Z,35.00
2019-03-16T18:56:03.369Z,34.96
2019-03-16T18:58:37.623Z,34.88
2019-03-16T19:01:06.506Z,35.03
2019-03-16T19:03:37.182Z,35.06
2019-03-16T19:06:07.915Z,35.13
2019-03-16T19:08:38.616Z,35.21
2019-03-16T19:11:09.564Z,35.11
2019-03-16T19:13:40.262Z,35.19
2019-03-16T19:16:11.170Z,35.38
2019-03-16T19:18:41.903Z,35.36
2019-03-16T19:21:12.607Z,35.37
2019-03-16T19:23:43.108Z,35.25
2019-03-16T19:26:13.602Z,35.41
2019-03-16T19:28:44.055Z,35.52
2019-03-16T19:31:14.547Z,35.46
2019-03-16T19:33:45.405Z,35.44
2019-03-16T19:36:16.347Z,35.62
2019-03-16T19:38:46.969Z,35.51
2019-03-16T19:41:17.464Z,35.74
2019-03-16T19:43:50.367Z,35.64
2019-03-16T19:46:20.163Z,35.74
2019-03-16T19:48:50.606Z,35.61
2019-03-16T19:51:21.206Z,35.49
2019-03-16T19:53:51.682Z,35.75
2019-03-16T19:56:22.133Z,35.49
2019-03-16T19:59:00.568Z,35.36
2019-03-16T20:01:24.772Z,35.15
2019-03-16T20:03:55.267Z,35.15
2019-03-16T20:06:26.263Z,35.17
2019-03-16T20:08:56.845Z,34.92
2019-03-16T20:11:27.302Z,34.93
2019-03-16T20:13:57.800Z,35.14
2019-03-16T20:16:28.362Z,34.96
2019-03-16T20:18:58.818Z,35.10
2019-03-16T20:21:29.311Z,34.90
2019-03-16T20:23:59.775Z,34.97
2019-03-16T20:26:30.272Z,34.79
2019-03-16T20:29:00.758Z,34.88
2019-03-16T20:31:33.373Z,34.94
2019-03-16T20:34:03.493Z,35.00
2019-03-16T20:36:34.030Z,35.08
2019-03-16T20:39:06.546Z,35.13
2019-03-16T20:41:37.145Z,35.31
2019-03-16T20:44:07.778Z,34.96
2019-03-16T20:46:38.239Z,34.93
2019-03-16T20:49:08.753Z,34.98
2019-03-16T20:51:39.196Z,35.03
2019-03-16T20:54:09.683Z,35.13
2019-03-16T20:56:40.164Z,35.14
2019-03-16T20:59:10.644Z,34.94
2019-03-16T21:01:41.103Z,35.24
2019-03-16T21:04:11.562Z,35.43
2019-03-16T21:06:42.037Z,35.45
2019-03-16T21:09:12.536Z,35.49
2019-03-16T21:11:43.167Z,35.81
2019-03-16T21:14:13.627Z,35.68
2019-03-16T21:16:44.120Z,35.79
2019-03-16T21:19:14.613Z,35.89
2019-03-16T21:21:45.072Z,35.87
2019-03-16T21:24:15.581Z,36.26
2019-03-16T21:26:52.618Z,36.19
2019-03-16T21:29:18.238Z,36.15
2019-03-16T21:31:48.714Z,36.39
2019-03-16T21:34:19.167Z,36.28
2019-03-16T21:36:49.625Z,36.66
2019-03-16T21:39:20.067Z,36.60
2019-03-16T21:41:50.566Z,36.80
2019-03-16T21:44:21.008Z,36.70
2019-03-16T21:46:51.503Z,36.86
2019-03-16T21:49:22.004Z,37.05
2019-03-16T21:51:52.509Z,37.03
2019-03-16T21:54:23.040Z,37.24
2019-03-16T21:56:53.517Z,36.76
2019-03-16T21:59:26.323Z,36.64
2019-03-16T22:01:56.136Z,36.70
2019-03-16T22:04:26.625Z,36.70
2019-03-16T22:06:57.075Z,36.56
2019-03-16T22:09:27.567Z,36.56
2019-03-16T22:11:58.070Z,36.51
2019-03-16T22:14:28.555Z,36.45
2019-03-16T22:16:59.030Z,36.39
2019-03-16T22:19:29.503Z,36.31
2019-03-16T22:21:59.997Z,36.20
2019-03-16T22:24:30.623Z,36.45
2019-03-16T22:27:01.069Z,36.27
2019-03-16T22:29:31.556Z,36.26
2019-03-16T22:32:02.003Z,36.35
2019-03-16T22:34:32.493Z,36.31
2019-03-16T22:37:02.937Z,36.42
2019-03-16T22:39:33.435Z,36.60
2019-03-16T22:42:03.881Z,36.70
2019-03-16T22:44:34.365Z,36.76
2019-03-16T22:47:04.893Z,37.02
2019-03-16T22:49:35.390Z,36.88
2019-03-16T22:52:05.993Z,37.00
2019-03-16T22:54:36.444Z,37.32
2019-03-16T22:57:06.935Z,37.39
2019-03-16T22:59:37.391Z,37.42
2019-03-16T23:02:08.151Z,37.49
2019-03-16T23:04:38.803Z,37.44
2019-03-16T23:07:09.354Z,37.45
2019-03-16T23:09:39.878Z,37.58
2019-03-16T23:12:10.328Z,37.69
2019-03-16T23:14:40.838Z,37.62
2019-03-16T23:17:11.295Z,37.61
2019-03-16T23:19:41.792Z,37.61
2019-03-16T23:22:12.290Z,37.96
2019-03-16T23:24:42.794Z,37.72
2019-03-16T23:27:13.247Z,37.71
2019-03-16T23:29:43.741Z,38.11
2019-03-16T23:32:14.286Z,37.96
2019-03-16T23:34:44.767Z,38.18
2019-03-16T23:37:15.219Z,37.90
2019-03-16T23:39:45.710Z,37.95
2019-03-16T23:42:16.196Z,37.99
2019-03-16T23:44:46.645Z,37.97
2019-03-16T23:47:17.291Z,38.09
2019-03-16T23:49:47.698Z,38.00
2019-03-16T23:52:18.189Z,38.05
2019-03-16T23:54:48.648Z,38.09
2019-03-16T23:57:19.133Z,38.39
2019-03-16T23:59:49.630Z,38.57
